createdAt,value
2017-10-22T00:02:33.767Z,69.77
2017-10-22T00:07:35.745Z,69.92
2017-10-22T00:12:37.708Z,70.03
2017-10-22T00:17:39.767Z,70.22
2017-10-22T00:22:41.680Z,70.09
2017-10-22T00:27:43.587Z,70.16
2017-10-22T00:32:45.592Z,70.27
2017-10-22T00:37:47.563Z,70.22
2017-10-22T00:42:49.620Z,70.21
2017-10-22T00:47:51.591Z,70.11
2017-10-22T00:52:53.503Z,69.82
2017-10-22T00:57:55.514Z,69.95
2017-10-22T01:02:57.527Z,69.91
2017-10-22T01:07:59.433Z,70.12
2017-10-22T01:13:01.398Z,70.05
2017-10-22T01:18:03.409Z,70.21
2017-10-22T01:23:05.444Z,70.47
2017-10-22T01:28:07.522Z,70.47
2017-10-22T01:33:09.519Z,70.48
2017-10-22T01:38:11.535Z,70.04
2017-10-22T01:43:13.599Z,70.37
2017-10-22T01:48:15.602Z,70.44
2017-10-22T01:53:17.642Z,70.20
2017-10-22T01:58:19.756Z,70.07
2017-10-22T02:03:21.737Z,69.90
2017-10-22T02:08:24.518Z,70.25
2017-10-22T02:13:26.556Z,70.04
2017-10-22T02:18:28.520Z,70.26
2017-10-22T02:23:30.436Z,70.21
2017-10-22T02:28:32.394Z,69.98
2017-10-22T02:33:34.378Z,69.77
2017-10-22T02:38:37.069Z,69.70
2017-10-22T02:43:39.096Z,69.75
2017-10-22T02:48:41.760Z,69.37
2017-10-22T02:53:43.686Z,69.07
2017-10-22T02:58:45.579Z,68.80
2017-10-22T03:03:47.525Z,68.84
2017-10-22T03:08:49.492Z,68.81
2017-10-22T03:13:51.448Z,68.73
2017-10-22T03:18:58.341Z,68.68
2017-10-22T03:24:06.434Z,68.77
2017-10-22T03:29:09.487Z,69.08
2017-10-22T03:34:11.759Z,69.15
2017-10-22T03:39:13.744Z,68.94
2017-10-22T03:44:15.837Z,69.09
2017-10-22T03:49:17.740Z,69.05
2017-10-22T03:54:19.687Z,68.94
2017-10-22T03:59:21.611Z,69.18
2017-10-22T04:04:23.509Z,69.05
2017-10-22T04:09:25.492Z,69.42
2017-10-22T04:14:28.415Z,69.60
2017-10-22T04:19:31.072Z,70.16
2017-10-22T04:24:33.040Z,70.22
2017-10-22T04:29:38.696Z,69.76
2017-10-22T04:34:40.723Z,69.27
2017-10-22T04:39:42.714Z,68.80
2017-10-22T04:44:44.756Z,68.26
2017-10-22T04:49:46.668Z,67.52
2017-10-22T04:54:48.917Z,66.84
2017-10-22T04:59:50.899Z,66.18
2017-10-22T05:04:53.249Z,66.04
2017-10-22T05:09:55.354Z,65.45
2017-10-22T05:14:57.240Z,64.60
2017-10-22T05:19:59.968Z,64.62
2017-10-22T05:25:01.916Z,64.12
2017-10-22T05:30:03.899Z,63.94
2017-10-22T05:35:05.979Z,63.62
2017-10-22T05:40:07.945Z,63.26
2017-10-22T05:45:09.937Z,62.66
2017-10-22T05:50:12.606Z,62.39
2017-10-22T05:55:14.573Z,62.56
2017-10-22T06:00:16.528Z,62.74
2017-10-22T06:05:24.929Z,62.43
2017-10-22T06:10:27.222Z,61.53
2017-10-22T06:15:30.000Z,61.55
2017-10-22T06:20:31.917Z,61.33
2017-10-22T06:25:33.863Z,61.15
2017-10-22T06:30:36.575Z,60.81
2017-10-22T06:35:39.307Z,60.77
2017-10-22T06:40:42.083Z,61.19
2017-10-22T06:45:44.074Z,60.96
2017-10-22T06:50:46.141Z,60.48
2017-10-22T06:55:48.937Z,60.03
2017-10-22T07:00:51.020Z,60.09
2017-10-22T07:05:53.152Z,60.32
2017-10-22T07:10:55.226Z,60.10
2017-10-22T07:15:57.149Z,60.16
2017-10-22T07:20:59.110Z,60.16
2017-10-22T07:26:01.065Z,60.42
2017-10-22T07:31:03.012Z,61.00
2017-10-22T07:36:04.995Z,62.03
2017-10-22T07:41:08.059Z,61.89
2017-10-22T07:46:10.150Z,62.30
2017-10-22T07:51:12.939Z,62.69
2017-10-22T07:56:14.885Z,64.26
2017-10-22T08:01:16.852Z,65.17
2017-10-22T08:06:18.833Z,65.75
2017-10-22T08:11:20.831Z,66.39
2017-10-22T08:16:22.821Z,67.10
2017-10-22T08:21:24.868Z,67.39
2017-10-22T08:26:26.795Z,68.01
2017-10-22T08:31:28.742Z,68.95
2017-10-22T08:36:30.696Z,69.00
2017-10-22T08:41:33.397Z,69.56
2017-10-22T08:46:35.536Z,70.29
2017-10-22T08:51:38.228Z,70.96
2017-10-22T08:56:40.238Z,71.17
2017-10-22T09:01:42.240Z,71.21
2017-10-22T09:06:44.228Z,70.96
2017-10-22T09:11:46.248Z,71.06
2017-10-22T09:16:48.288Z,71.42
2017-10-22T09:21:50.299Z,71.49
2017-10-22T09:26:52.379Z,71.63
2017-10-22T09:31:54.373Z,72.66
2017-10-22T09:36:56.332Z,72.56
2017-10-22T09:41:58.399Z,72.77
2017-10-22T09:47:01.162Z,72.24
2017-10-22T09:52:03.197Z,71.69
2017-10-22T09:57:05.175Z,70.99
2017-10-22T10:02:07.228Z,71.90
2017-10-22T10:07:09.259Z,72.48
2017-10-22T10:12:11.970Z,72.39
2017-10-22T10:17:14.759Z,71.85
2017-10-22T10:22:16.807Z,72.06
2017-10-22T10:27:19.535Z,72.30
2017-10-22T10:32:21.581Z,72.56
2017-10-22T10:37:23.572Z,72.46
2017-10-22T10:42:25.600Z,71.99
2017-10-22T10:47:27.671Z,71.74
2017-10-22T10:52:29.712Z,72.16
2017-10-22T10:57:31.756Z,71.78
2017-10-22T11:02:34.756Z,71.85
2017-10-22T11:07:37.397Z,71.78
2017-10-22T11:12:40.774Z,71.38
2017-10-22T11:17:43.315Z,70.56
2017-10-22T11:22:45.916Z,70.47
2017-10-22T11:27:47.844Z,70.29
2017-10-22T11:32:50.465Z,70.38
2017-10-22T11:37:52.460Z,71.09
2017-10-22T11:42:54.880Z,72.07
2017-10-22T11:47:56.877Z,71.99
2017-10-22T11:52:58.853Z,71.62
2017-10-22T11:58:00.812Z,71.79
2017-10-22T12:03:02.806Z,71.94
2017-10-22T12:08:04.771Z,72.02
2017-10-22T12:13:06.771Z,72.77
2017-10-22T12:18:08.745Z,72.87
2017-10-22T12:23:10.736Z,72.60
2017-10-22T12:28:12.652Z,73.01
2017-10-22T12:33:15.339Z,72.84
2017-10-22T12:38:17.351Z,72.03
2017-10-22T12:43:19.350Z,72.04
2017-10-22T12:48:21.414Z,71.57
2017-10-22T12:53:23.351Z,71.94
2017-10-22T12:58:25.296Z,71.55
2017-10-22T13:03:27.304Z,72.11
2017-10-22T13:08:30.056Z,71.49
2017-10-22T13:13:34.117Z,71.13
2017-10-22T13:18:36.481Z,71.88
2017-10-22T13:23:38.905Z,71.49
2017-10-22T13:28:51.413Z,71.62
2017-10-22T13:33:54.071Z,71.17
2017-10-22T13:38:56.120Z,71.01
2017-10-22T13:43:58.132Z,71.87
2017-10-22T13:49:00.127Z,72.17
2017-10-22T13:54:02.104Z,71.28
2017-10-22T13:59:04.811Z,71.04
2017-10-22T14:04:06.725Z,70.94
2017-10-22T14:09:08.640Z,71.17
2017-10-22T14:14:11.328Z,71.08
2017-10-22T14:19:13.272Z,70.97
2017-10-22T14:24:15.208Z,70.66
2017-10-22T14:29:17.871Z,70.91
2017-10-22T14:34:20.537Z,70.43
2017-10-22T14:39:22.459Z,70.18
2017-10-22T14:44:24.456Z,69.98
2017-10-22T14:49:26.438Z,69.64
2017-10-22T14:54:29.307Z,69.51
2017-10-22T14:59:31.239Z,68.75
2017-10-22T15:04:34.030Z,68.89
2017-10-22T15:09:36.134Z,69.17
2017-10-22T15:14:38.170Z,68.81
2017-10-22T15:19:40.866Z,68.58
2017-10-22T15:24:42.787Z,69.07
2017-10-22T15:29:45.480Z,69.62
2017-10-22T15:34:47.858Z,70.38
2017-10-22T15:39:49.783Z,70.99
2017-10-22T15:44:51.755Z,70.37
2017-10-22T15:49:53.718Z,70.16
2017-10-22T15:54:55.622Z,70.99
2017-10-22T15:59:57.561Z,71.07
2017-10-22T16:05:01.676Z,70.51
2017-10-22T16:10:04.514Z,70.58
2017-10-22T16:15:07.179Z,70.95
2017-10-22T16:20:09.184Z,71.09
2017-10-22T16:25:11.267Z,71.34
2017-10-22T16:30:13.991Z,71.20
2017-10-22T16:35:16.649Z,71.98
2017-10-22T16:40:18.580Z,71.85
2017-10-22T16:45:20.535Z,71.71
2017-10-22T16:50:22.542Z,71.84
2017-10-22T16:55:24.473Z,72.10
2017-10-22T17:00:26.449Z,72.65
2017-10-22T17:05:28.428Z,72.78
2017-10-22T17:10:30.417Z,73.16
2017-10-22T17:15:32.353Z,72.99
2017-10-22T17:20:34.358Z,73.70
2017-10-22T17:25:37.047Z,73.85
2017-10-22T17:30:38.945Z,74.43
2017-10-22T17:35:40.852Z,74.04
2017-10-22T17:40:42.885Z,74.72
2017-10-22T17:45:45.600Z,74.44
2017-10-22T17:50:48.231Z,73.81
2017-10-22T17:55:50.932Z,73.66
2017-10-22T18:00:53.380Z,73.31
2017-10-22T18:05:55.362Z,73.43
2017-10-22T18:10:59.280Z,73.43
2017-10-22T18:16:01.456Z,73.81
2017-10-22T18:21:03.520Z,73.17
2017-10-22T18:26:05.571Z,73.45
2017-10-22T18:31:07.548Z,73.75
2017-10-22T18:36:10.307Z,73.58
2017-10-22T18:41:12.249Z,73.68
2017-10-22T18:46:14.422Z,73.86
2017-10-22T18:51:16.333Z,73.67
2017-10-22T18:56:18.295Z,73.82
2017-10-22T19:01:20.279Z,74.09
2017-10-22T19:06:22.784Z,73.70
2017-10-22T19:11:25.107Z,73.75
2017-10-22T19:16:27.089Z,72.93
2017-10-22T19:21:29.012Z,72.74
2017-10-22T19:26:30.944Z,72.67
2017-10-22T19:31:32.836Z,73.57
2017-10-22T19:36:34.741Z,73.08
2017-10-22T19:41:36.644Z,72.90
2017-10-22T19:46:38.607Z,73.02
2017-10-22T19:51:41.443Z,72.77
2017-10-22T19:56:44.255Z,72.51
2017-10-22T20:01:46.972Z,72.04
2017-10-22T20:06:49.671Z,72.33
2017-10-22T20:11:51.727Z,72.56
2017-10-22T20:16:53.640Z,72.14
2017-10-22T20:21:55.547Z,72.55
2017-10-22T20:26:57.563Z,71.99
2017-10-22T20:31:59.582Z,71.53
2017-10-22T20:37:01.615Z,71.56
2017-10-22T20:42:03.600Z,72.09
2017-10-22T20:47:05.592Z,72.03
2017-10-22T20:52:07.500Z,71.47
2017-10-22T20:57:09.420Z,71.45
2017-10-22T21:02:11.372Z,70.82
2017-10-22T21:07:13.315Z,70.64
2017-10-22T21:12:15.320Z,70.62
2017-10-22T21:17:17.248Z,70.60
2017-10-22T21:22:19.185Z,70.98
2017-10-22T21:27:21.845Z,71.50
2017-10-22T21:32:23.776Z,71.39
2017-10-22T21:37:25.857Z,71.04
2017-10-22T21:42:27.829Z,70.75
2017-10-22T21:47:29.834Z,70.67
2017-10-22T21:52:31.822Z,70.15
2017-10-22T21:57:34.481Z,69.89
2017-10-22T22:02:36.483Z,70.02
2017-10-22T22:07:38.488Z,70.27
2017-10-22T22:12:40.427Z,70.59
2017-10-22T22:17:42.407Z,70.68
2017-10-22T22:22:44.314Z,71.15
2017-10-22T22:27:46.268Z,70.53
2017-10-22T22:32:48.975Z,70.35
2017-10-22T22:37:52.340Z,70.32
2017-10-22T22:42:55.082Z,69.90
2017-10-22T22:47:57.915Z,69.90
2017-10-22T22:53:00.647Z,70.08
2017-10-22T22:58:03.244Z,70.15
2017-10-22T23:03:05.163Z,69.17
2017-10-22T23:08:07.060Z,69.42
2017-10-22T23:13:08.995Z,69.70
2017-10-22T23:18:10.965Z,69.37
2017-10-22T23:23:12.866Z,69.27
2017-10-22T23:28:15.350Z,69.00
2017-10-22T23:33:17.725Z,69.07
2017-10-22T23:38:20.436Z,69.32
2017-10-22T23:43:23.149Z,69.48
2017-10-22T23:48:25.126Z,69.98
2017-10-22T23:53:27.046Z,70.62
2017-10-22T23:58:28.978Z,71.56
